Terminal Aerodrome Forecast
Issued by NWS

Home | Current Version | Previous Version | Text Only | Print | Product List | Glossary On
Versions: 1 2 3 4 5 6 7 8 9 10 11 12 13 14 15 16 17 18 19 20 21
000
FTUS43 KAPX 210500
TAFAPN
TAF
KAPN 210520Z 2106/2206 VRB03KT P6SM SCT015 BKN025
     FM210800 VRB03KT 3SM BR OVC008
     FM211000 00000KT 1SM BR OVC004
     FM211500 11005KT P6SM BKN025
     FM220200 00000KT 4SM BR BKN015=

USA.gov is the U.S. government's official web portal to all federal, state and local government web resources and services.